KRKR/RKR METAR and TAF weather

Enter ICAO airport designator
Station Type Date Time Source
KRKR METAR 2019/08/25 02:55 UTC NOAA

KRKR 250255Z AUTO 00000KT 10SM CLR 25/23 A2996 RMK AO2


Station Type Date Time Source
KRKR Decoded METAR 2019/08/25 02:55 UTC NOAA

Station name not available
Aug 24, 2019 - 10:55 PM EDT / 2019.08.25 0255 UTC
Wind: Calm:0
Visibility: 10 mile(s):0
Sky conditions: clear
Temperature: 77 F (25 C)
Dew Point: 73 F (23 C)
Relative Humidity: 88%
Pressure (altimeter): 29.96 in. Hg (1014 hPa)
ob: KRKR 250255Z AUTO 00000KT 10SM CLR 25/23 A2996 RMK AO2
cycle: 3

Station Type Date Time Source
KRKR TAF UTC NOAA

Error!

Example: see airport list